Weather at Mariscal Sucre International Airport

Public forecast

Using degrees Celsius for public forecast. Weather courtesy of forecast.io.

Current aviation weather report (METAR) for Mariscal Sucre International Airport

Retrieved 2020/11/25 13:00 UTC (27 minutes ago):

SEQM 251300Z 17002KT CAVOK 15/08 Q1027 NOSIG RMK A3035

Aviation forecast (TAF) for Mariscal Sucre International Airport

Forecast is more than 6 hours old.

Retrieved 2020/11/25 06:15 UTC (7 hours ago):

TAF SEQM 250410Z 2506/2606 00000KT 6000 BCFG SCT005 BKN020 FM251200 VRB03KT 9999 FEW026 SCT100 BECMG 2517/2519 36014KT SCT030 SCT100 TEMPO 2520/2522 TSRA FEW023CB BKN030TCU BKN100 FM260000 03004KT 4000 BCFG SCT005 BKN020 TX24/2519Z TN11/2511Z